Strona główna
METAR-TAF:

METAR-TAF

Lotnisko :

Port lotniczy Bonriki

Tarawa, Kiribati

Szerokość geograficzna: 01-21N, Długość geograficzna: 172-55E, wysokość: 2 m

Aktualna obserwacja pogody

Raport powstał 53 minut temu, godzina 17:00 UTC
Wiatr 7 kt od wschodnio-południowy wschód
Temperatura 28°C
Wilgotność 79%
Ciśnienie 1008 hPa
Widzialność 10 km lub więcej
Mało chmury na wysokości 2000 ft
Rozproszone chmury na wysokości 30000 ft

METAR: NGTA 191700Z 11007KT 9999 FEW020 SCT300 28/24 Q1008

czas: 07:53 (17:53 UTC)

Prognoza

Raport powstał 33 minut temu, godzina 17:20 UTC
Prognoza ważna od 19 godzina 18 UTC do 20 godzina 18 UTC
Wiatr 8 kt od wschód
Widzialność 10 km lub więcej
Rozproszone chmury na wysokości 1800 ft
Rozproszone chmury na wysokości 10000 ft
Prawdopodobieństwo 30% :
Przejściowo
od 20 godzina 02 UTC do 20 godzina 06 UTC
Widzialność: 5000 m
Przerywane chmury na wysokości 1500 ft
przelotny opad deszczu

TAF: NGTA 191720Z 1918/2018 10008KT 9999 SCT018 SCT100 PROB30 TEMPO 2002/2006 5000 SHRA BKN015

Obserwacja i prognoza pogody dla ponad 4000 lotnisk (raport METAR i TAF).

Dostępne stacje oznaczono żółtymi i czerwonymi punktami na mapie.

Najedź kursorem aby zobaczyć nazwę stacji.

Kliknij aby zobaczyć obserwacje i prognozy pogody.

Aby zmienić mapę: kliknij na zielony przycisk z czarnym krzyżykiem, aby powiększyć; na zielony przycisk z myślnikiem, aby pomniejszyć; na zielone strzałki, aby przejść do map sąsiednich.


METAR-TAF: